Terminal Aerodrome Forecast
Issued by NWS Twin Cities, MN

Home | Current Version | Previous Version | Text Only | Print | Product List | Glossary On
Versions: 1 2 3 4 5 6 7 8 9 10 11 12 13 14 15 16 17
135
FTUS43 KMPX 242135 AAA
TAFSTC
TAF AMD
KSTC 242135Z 2422/2518 05004KT P6SM OVC015
     FM250000 06009KT P6SM OVC012
     FM250200 05007KT P6SM OVC008
     FM250500 04005KT 3SM -SN OVC006
     FM250800 03009KT 1SM -SN OVC005
     FM251400 35012KT 2SM -SN OVC012
     FM251700 34012G20KT 4SM -SN OVC015=

USA.gov is the U.S. government's official web portal to all federal, state and local government web resources and services.